createdAt,value
2022-10-19T00:01:10.320Z,1.33
2022-10-19T00:03:38.880Z,2.50
2022-10-19T00:06:16.040Z,1.42
2022-10-19T00:08:44.862Z,1.98
2022-10-19T00:11:13.880Z,2.60
2022-10-19T00:13:43.440Z,1.83
2022-10-19T00:16:13.530Z,1.13
2022-10-19T00:18:43.567Z,3.67
2022-10-19T00:21:13.350Z,1.20
2022-10-19T00:23:41.811Z,2.90
2022-10-19T00:26:10.389Z,4.03
2022-10-19T00:28:39.189Z,1.25
2022-10-19T00:31:10.401Z,5.57
2022-10-19T00:33:38.831Z,1.83
2022-10-19T00:36:07.569Z,1.23
2022-10-19T00:38:35.730Z,0.75
2022-10-19T00:41:03.850Z,2.15
2022-10-19T00:43:32.891Z,3.67
2022-10-19T00:46:00.930Z,1.30
2022-10-19T00:48:34.153Z,2.78
2022-10-19T00:51:02.721Z,3.97
2022-10-19T00:53:32.180Z,1.65
2022-10-19T00:56:04.237Z,2.50
2022-10-19T00:58:32.650Z,5.43
2022-10-19T01:01:04.367Z,3.80
2022-10-19T01:03:35.420Z,3.72
2022-10-19T01:06:04.550Z,3.10
2022-10-19T01:08:32.790Z,3.50
2022-10-19T01:11:14.321Z,5.18
2022-10-19T01:13:51.931Z,2.25
2022-10-19T01:16:29.781Z,5.22
2022-10-19T01:19:08.622Z,4.68
2022-10-19T01:21:44.420Z,4.43
2022-10-19T01:24:45.824Z,1.52
2022-10-19T01:27:35.552Z,1.17
2022-10-19T01:30:09.710Z,2.97
2022-10-19T01:32:48.728Z,1.30
2022-10-19T01:35:26.026Z,2.33
2022-10-19T01:38:05.045Z,1.42
2022-10-19T01:40:42.740Z,1.67
2022-10-19T01:43:18.570Z,3.30
2022-10-19T01:45:53.618Z,1.27
2022-10-19T01:48:24.931Z,1.35
2022-10-19T01:51:00.352Z,1.90
2022-10-19T01:53:34.240Z,2.17
2022-10-19T01:56:04.660Z,1.30
2022-10-19T01:58:36.003Z,1.83
2022-10-19T02:03:39.260Z,1.23
2022-10-19T02:06:10.210Z,3.00
2022-10-19T02:08:43.000Z,2.92
2022-10-19T02:11:11.065Z,2.05
2022-10-19T02:13:41.000Z,1.60
2022-10-19T02:16:15.661Z,1.92
2022-10-19T02:18:47.731Z,4.63
2022-10-19T02:21:16.279Z,1.98
2022-10-19T02:23:44.320Z,2.88
2022-10-19T02:26:12.671Z,2.10
2022-10-19T02:28:40.940Z,3.38
2022-10-19T02:31:11.110Z,4.70
2022-10-19T02:33:39.671Z,2.03
2022-10-19T02:36:08.120Z,4.43
2022-10-19T02:38:36.411Z,4.60
2022-10-19T02:41:09.150Z,1.30
2022-10-19T02:43:40.983Z,4.63
2022-10-19T02:46:15.018Z,3.75
2022-10-19T02:48:43.970Z,3.15
2022-10-19T02:51:28.250Z,1.10
2022-10-19T02:53:57.383Z,2.40
2022-10-19T02:56:28.110Z,3.78
2022-10-19T02:58:56.560Z,3.00
2022-10-19T03:01:26.493Z,3.45
2022-10-19T03:03:54.576Z,1.83
2022-10-19T03:06:22.680Z,4.80
2022-10-19T03:08:50.711Z,2.55
2022-10-19T03:11:18.821Z,0.88
2022-10-19T03:16:15.961Z,1.05
2022-10-19T03:18:45.281Z,1.75
2022-10-19T03:21:14.400Z,4.20
2022-10-19T03:23:42.651Z,4.40
2022-10-19T03:26:14.701Z,1.05
2022-10-19T03:28:43.005Z,2.33
2022-10-19T03:31:11.170Z,0.75
2022-10-19T03:33:39.310Z,3.92
2022-10-19T03:36:28.001Z,8.50
2022-10-19T03:38:58.001Z,2.88
2022-10-19T03:41:27.520Z,1.00
2022-10-19T03:43:55.849Z,7.45
2022-10-19T03:46:24.100Z,2.78
2022-10-19T03:48:52.222Z,2.67
2022-10-19T03:51:21.850Z,2.08
2022-10-19T03:53:53.880Z,1.10
2022-10-19T03:56:23.910Z,3.95
2022-10-19T03:58:54.018Z,1.55
2022-10-19T04:01:24.141Z,4.13
2022-10-19T04:03:54.950Z,1.95
2022-10-19T04:06:26.561Z,2.95
2022-10-19T04:08:56.240Z,2.45
2022-10-19T04:11:26.447Z,5.38
2022-10-19T04:13:58.827Z,4.20
2022-10-19T04:16:28.721Z,1.15
2022-10-19T04:18:57.520Z,4.80
2022-10-19T04:21:27.132Z,2.42
2022-10-19T04:24:01.140Z,1.73
2022-10-19T04:26:29.921Z,3.50
2022-10-19T04:28:59.196Z,1.65
2022-10-19T04:31:27.952Z,4.40
2022-10-19T04:33:56.413Z,1.45
2022-10-19T04:36:25.334Z,3.35
2022-10-19T04:38:53.330Z,3.47
2022-10-19T04:41:23.680Z,3.40
2022-10-19T04:43:56.820Z,4.45
2022-10-19T04:46:25.619Z,1.02
2022-10-19T04:48:54.320Z,1.58
2022-10-19T04:51:23.031Z,3.10
2022-10-19T04:53:51.922Z,3.20
2022-10-19T04:56:26.210Z,1.23
2022-10-19T04:58:57.699Z,1.20
2022-10-19T05:01:27.580Z,1.38
2022-10-19T05:06:25.311Z,3.80
2022-10-19T05:08:54.158Z,2.13
2022-10-19T05:11:23.609Z,4.68
2022-10-19T05:13:52.378Z,1.90
2022-10-19T05:16:22.521Z,2.70
2022-10-19T05:18:51.742Z,3.40
2022-10-19T05:21:21.911Z,3.08
2022-10-19T05:23:53.273Z,3.40
2022-10-19T05:26:24.921Z,3.13
2022-10-19T05:28:56.625Z,4.78
2022-10-19T05:31:27.414Z,2.70
2022-10-19T05:33:56.370Z,2.03
2022-10-19T05:36:26.454Z,1.70
2022-10-19T05:38:56.089Z,1.52
2022-10-19T05:41:27.197Z,1.98
2022-10-19T05:43:56.990Z,3.10
2022-10-19T05:46:26.203Z,2.50
2022-10-19T05:48:55.768Z,2.20
2022-10-19T05:51:25.200Z,1.90
2022-10-19T05:53:54.463Z,1.73
2022-10-19T05:56:24.062Z,4.90
2022-10-19T05:58:53.873Z,2.17
2022-10-19T06:01:22.152Z,3.88
2022-10-19T06:03:53.811Z,3.20
2022-10-19T06:06:22.692Z,4.97
2022-10-19T06:08:51.630Z,2.38
2022-10-19T06:11:22.868Z,1.50
2022-10-19T06:13:54.931Z,3.17
2022-10-19T06:16:25.031Z,2.97
2022-10-19T06:18:54.009Z,1.42
2022-10-19T06:21:23.870Z,3.55
2022-10-19T06:23:52.770Z,6.07
2022-10-19T06:26:21.354Z,2.78
2022-10-19T06:28:50.322Z,8.43
2022-10-19T06:31:19.909Z,2.17
2022-10-19T06:33:49.456Z,2.45
2022-10-19T06:36:20.002Z,3.08
2022-10-19T06:38:48.864Z,3.38
2022-10-19T06:41:17.310Z,3.67
2022-10-19T06:43:45.783Z,3.33
2022-10-19T06:46:17.630Z,6.53
2022-10-19T06:48:51.226Z,2.78
2022-10-19T06:51:19.741Z,3.08
2022-10-19T06:53:48.945Z,2.65
2022-10-19T06:56:19.864Z,5.78
2022-10-19T06:58:49.970Z,8.00
2022-10-19T07:01:18.367Z,4.97
2022-10-19T07:03:47.831Z,3.30
2022-10-19T07:06:15.933Z,2.45
2022-10-19T07:08:44.734Z,8.43
2022-10-19T07:11:15.763Z,3.75
2022-10-19T07:13:43.928Z,3.97
2022-10-19T07:16:17.631Z,6.35
2022-10-19T07:18:51.800Z,3.28
2022-10-19T07:21:21.811Z,5.28
2022-10-19T07:23:50.284Z,7.10
2022-10-19T07:26:21.401Z,5.20
2022-10-19T07:28:50.350Z,3.58
2022-10-19T07:31:20.723Z,3.22
2022-10-19T07:33:53.802Z,3.63
2022-10-19T07:36:22.080Z,3.30
2022-10-19T07:38:50.206Z,3.35
2022-10-19T07:41:20.301Z,4.50
2022-10-19T07:43:49.241Z,3.67
2022-10-19T07:46:19.670Z,4.75
2022-10-19T07:48:48.209Z,4.93
2022-10-19T07:51:20.202Z,5.60
2022-10-19T07:53:48.548Z,4.18
2022-10-19T07:56:18.790Z,5.78
2022-10-19T07:58:47.230Z,10.55
2022-10-19T08:01:17.412Z,9.63
2022-10-19T08:06:36.667Z,8.38
2022-10-19T08:09:05.382Z,5.97
2022-10-19T08:11:35.749Z,5.50
2022-10-19T08:14:04.672Z,6.53
2022-10-19T08:16:37.411Z,6.30
2022-10-19T08:19:08.521Z,5.95
2022-10-19T08:21:39.959Z,4.40
2022-10-19T08:24:08.514Z,5.80
2022-10-19T08:26:38.944Z,6.28
2022-10-19T08:29:09.520Z,6.05
2022-10-19T08:31:37.633Z,5.05
2022-10-19T08:34:06.632Z,3.92
2022-10-19T08:36:35.765Z,7.88
2022-10-19T08:39:08.678Z,5.13
2022-10-19T08:44:32.061Z,4.93
2022-10-19T08:47:12.013Z,3.95
2022-10-19T08:49:41.408Z,5.20
2022-10-19T08:52:14.662Z,5.75
2022-10-19T08:54:51.131Z,4.85
2022-10-19T08:57:33.136Z,9.93
2022-10-19T09:00:07.981Z,8.27
2022-10-19T09:02:48.757Z,6.70
2022-10-19T09:05:24.372Z,9.85
2022-10-19T09:07:55.230Z,7.75
2022-10-19T09:10:27.990Z,6.75
2022-10-19T09:13:00.710Z,5.10
2022-10-19T09:15:35.541Z,7.47
2022-10-19T09:18:03.790Z,4.55
2022-10-19T09:20:39.061Z,4.82
2022-10-19T09:23:22.771Z,5.03
2022-10-19T09:25:53.442Z,4.78
2022-10-19T09:28:39.965Z,9.30
2022-10-19T09:31:15.301Z,6.82
2022-10-19T09:33:46.444Z,4.07
2022-10-19T09:36:22.536Z,10.80
2022-10-19T09:38:56.059Z,5.22
2022-10-19T09:41:25.753Z,5.75
2022-10-19T09:43:56.012Z,12.02
2022-10-19T09:46:38.635Z,6.28
2022-10-19T09:49:07.612Z,6.53
2022-10-19T09:51:50.363Z,5.13
2022-10-19T09:54:26.981Z,12.52
2022-10-19T09:56:58.049Z,4.57
2022-10-19T09:59:30.951Z,6.20
2022-10-19T10:02:05.854Z,7.67
2022-10-19T10:04:36.472Z,7.25
2022-10-19T10:07:05.220Z,3.80
2022-10-19T10:09:39.437Z,9.45
2022-10-19T10:12:09.110Z,4.45
2022-10-19T10:14:39.870Z,11.85
2022-10-19T10:17:13.840Z,6.95
2022-10-19T10:19:52.651Z,7.95
2022-10-19T10:22:26.850Z,5.85
2022-10-19T10:24:56.427Z,7.38
2022-10-19T10:27:32.965Z,5.90
2022-10-19T10:30:07.232Z,5.10
2022-10-19T10:32:42.206Z,4.28
2022-10-19T10:35:21.158Z,4.25
2022-10-19T10:37:50.829Z,13.63
2022-10-19T10:40:24.169Z,4.78
2022-10-19T10:42:56.321Z,5.97
2022-10-19T10:45:27.499Z,8.07
2022-10-19T10:47:56.173Z,3.55
2022-10-19T10:50:27.150Z,5.28
2022-10-19T10:52:59.660Z,5.40
2022-10-19T10:55:28.339Z,3.97
2022-10-19T10:58:08.810Z,3.22
2022-10-19T11:00:40.353Z,4.60
2022-10-19T11:03:15.727Z,4.63
2022-10-19T11:05:48.519Z,6.00
2022-10-19T11:08:23.789Z,4.10
2022-10-19T11:10:58.669Z,4.28
2022-10-19T11:13:32.547Z,6.40
2022-10-19T11:16:05.012Z,4.90
2022-10-19T11:18:37.019Z,3.10
2022-10-19T11:21:10.849Z,5.65
2022-10-19T11:23:51.570Z,11.25
2022-10-19T11:26:35.330Z,5.55
2022-10-19T11:29:22.369Z,3.88
2022-10-19T11:31:54.260Z,3.63
2022-10-19T11:34:39.690Z,5.15
2022-10-19T11:37:19.082Z,4.50
2022-10-19T11:40:00.859Z,5.45
2022-10-19T11:42:43.482Z,6.63
2022-10-19T11:45:22.759Z,4.47
2022-10-19T11:48:07.112Z,3.17
2022-10-19T11:50:53.814Z,5.70
2022-10-19T11:53:37.320Z,5.13
2022-10-19T11:56:10.313Z,4.63
2022-10-19T11:58:51.221Z,3.47
2022-10-19T12:01:33.928Z,6.05
2022-10-19T12:04:25.903Z,7.00
2022-10-19T12:07:02.980Z,9.30
2022-10-19T12:09:43.502Z,4.35
2022-10-19T12:12:26.232Z,7.47
2022-10-19T12:15:02.599Z,6.90
2022-10-19T12:17:38.137Z,2.92
2022-10-19T12:20:19.682Z,4.72
2022-10-19T12:22:49.487Z,4.70
2022-10-19T12:25:20.441Z,6.43
2022-10-19T12:27:50.643Z,6.03
2022-10-19T12:30:21.329Z,4.05
2022-10-19T12:33:03.089Z,5.18
2022-10-19T12:35:49.631Z,5.93
2022-10-19T12:38:26.051Z,3.03
2022-10-19T12:41:05.111Z,2.83
2022-10-19T12:43:42.893Z,2.72
2022-10-19T12:46:23.064Z,5.60
2022-10-19T12:49:24.171Z,4.60
2022-10-19T12:51:55.349Z,6.50
2022-10-19T12:54:25.539Z,2.08
2022-10-19T12:56:55.780Z,4.50
2022-10-19T12:59:27.457Z,2.15
2022-10-19T13:01:57.090Z,6.03
2022-10-19T13:04:28.580Z,6.20
2022-10-19T13:07:04.131Z,6.88
2022-10-19T13:09:35.911Z,3.80
2022-10-19T13:12:29.526Z,2.38
2022-10-19T13:14:59.034Z,3.08
2022-10-19T13:17:46.325Z,2.28
2022-10-19T13:20:51.953Z,2.42
2022-10-19T13:23:42.894Z,1.67
2022-10-19T13:26:25.611Z,5.88
2022-10-19T13:28:54.857Z,3.35
2022-10-19T13:31:25.842Z,3.95
2022-10-19T13:33:55.690Z,2.00
2022-10-19T13:36:26.239Z,1.13
2022-10-19T13:39:16.363Z,3.08
2022-10-19T13:41:56.361Z,2.30
2022-10-19T13:44:27.873Z,4.13
2022-10-19T13:47:12.592Z,6.43
2022-10-19T13:50:06.250Z,1.30
2022-10-19T13:52:48.191Z,6.22
2022-10-19T13:55:31.991Z,1.48
2022-10-19T13:58:21.669Z,2.42
2022-10-19T14:01:08.618Z,8.32
2022-10-19T14:03:54.832Z,2.85
2022-10-19T14:06:28.707Z,1.15
2022-10-19T14:09:15.432Z,3.25
2022-10-19T14:11:47.419Z,6.03
2022-10-19T14:14:19.028Z,1.25
2022-10-19T14:16:52.742Z,1.15
2022-10-19T14:19:27.218Z,3.65
2022-10-19T14:21:57.376Z,1.85
2022-10-19T14:24:34.742Z,2.10
2022-10-19T14:27:07.270Z,1.77
2022-10-19T14:29:47.220Z,5.68
2022-10-19T14:32:15.690Z,3.53
2022-10-19T14:34:45.031Z,5.90
2022-10-19T14:37:18.510Z,3.05
2022-10-19T14:40:00.145Z,0.70
2022-10-19T14:42:40.368Z,2.47
2022-10-19T14:45:15.051Z,2.95
2022-10-19T14:48:02.870Z,0.90
2022-10-19T14:50:40.423Z,2.03
2022-10-19T14:53:22.139Z,0.80
2022-10-19T14:55:53.430Z,6.88
2022-10-19T14:58:26.250Z,3.05
2022-10-19T15:00:55.690Z,2.40
2022-10-19T15:03:27.093Z,1.60
2022-10-19T15:06:00.851Z,3.35
2022-10-19T15:08:43.997Z,9.18
2022-10-19T15:11:24.610Z,2.53
2022-10-19T15:14:01.391Z,3.22
2022-10-19T15:16:35.149Z,1.02
2022-10-19T15:19:05.518Z,4.60
2022-10-19T15:21:34.304Z,2.22
2022-10-19T15:24:17.082Z,2.92
2022-10-19T15:27:01.684Z,0.93
2022-10-19T15:29:38.260Z,4.05
2022-10-19T15:32:26.409Z,2.17
2022-10-19T15:34:54.909Z,1.73
2022-10-19T15:39:53.858Z,3.28
2022-10-19T15:42:24.650Z,3.08
2022-10-19T15:44:54.213Z,1.77
2022-10-19T15:47:24.298Z,4.35
2022-10-19T15:49:55.673Z,4.35
2022-10-19T15:52:25.609Z,4.60
2022-10-19T15:54:55.637Z,5.72
2022-10-19T15:57:28.081Z,3.95
2022-10-19T15:59:59.403Z,3.97
2022-10-19T16:02:27.811Z,2.38
2022-10-19T16:04:56.674Z,6.40
2022-10-19T16:07:29.031Z,1.75
2022-10-19T16:09:58.070Z,2.47
2022-10-19T16:12:27.429Z,2.92
2022-10-19T16:14:56.957Z,2.75
2022-10-19T16:17:25.119Z,2.92
2022-10-19T16:19:53.291Z,3.00
2022-10-19T16:22:21.573Z,3.08
2022-10-19T16:24:49.806Z,2.20
2022-10-19T16:27:18.572Z,3.83
2022-10-19T16:29:46.799Z,5.07
2022-10-19T16:32:16.884Z,3.25
2022-10-19T16:34:45.041Z,2.58
2022-10-19T16:37:13.200Z,5.45
2022-10-19T16:39:41.460Z,4.68
2022-10-19T16:42:09.599Z,3.70
2022-10-19T16:44:37.764Z,3.97
2022-10-19T16:47:05.964Z,2.67
2022-10-19T16:49:35.550Z,5.03
2022-10-19T16:52:03.651Z,1.80
2022-10-19T16:54:32.819Z,2.70
2022-10-19T16:57:01.660Z,7.47
2022-10-19T16:59:31.957Z,2.80
2022-10-19T17:02:00.103Z,4.45
2022-10-19T17:04:28.220Z,4.95
2022-10-19T17:06:58.230Z,1.02
2022-10-19T17:09:42.915Z,6.75
2022-10-19T17:12:12.221Z,2.90
2022-10-19T17:14:41.698Z,4.82
2022-10-19T17:17:11.306Z,3.50
2022-10-19T17:19:39.889Z,2.45
2022-10-19T17:22:09.350Z,6.13
2022-10-19T17:24:39.233Z,4.40
2022-10-19T17:27:07.772Z,4.85
2022-10-19T17:29:35.820Z,4.95
2022-10-19T17:32:04.179Z,2.97
2022-10-19T17:34:32.339Z,2.58
2022-10-19T17:37:00.581Z,7.20
2022-10-19T17:39:30.263Z,3.72
2022-10-19T17:42:02.040Z,4.55
2022-10-19T17:44:31.917Z,2.75
2022-10-19T17:47:01.562Z,5.15
2022-10-19T17:49:30.295Z,4.22
2022-10-19T17:51:59.010Z,2.88
2022-10-19T17:54:27.164Z,3.15
2022-10-19T17:56:56.657Z,2.17
2022-10-19T17:59:34.765Z,6.22
2022-10-19T18:02:03.532Z,6.00
2022-10-19T18:04:31.930Z,3.85
2022-10-19T18:07:00.109Z,5.53
2022-10-19T18:09:28.298Z,5.45
2022-10-19T18:11:58.071Z,3.40
2022-10-19T18:14:26.149Z,6.68
2022-10-19T18:16:54.648Z,4.30
2022-10-19T18:19:22.709Z,1.83
2022-10-19T18:21:52.523Z,4.30
2022-10-19T18:24:21.467Z,4.72
2022-10-19T18:26:51.178Z,4.28
2022-10-19T18:29:23.330Z,3.45
2022-10-19T18:31:52.868Z,5.07
2022-10-19T18:34:23.509Z,6.88
2022-10-19T18:36:52.647Z,6.10
2022-10-19T18:39:20.929Z,6.30
2022-10-19T18:41:54.494Z,2.28
2022-10-19T18:44:28.656Z,2.30
2022-10-19T18:46:59.269Z,4.28
2022-10-19T18:49:27.402Z,4.75
2022-10-19T18:51:56.085Z,5.03
2022-10-19T18:54:26.262Z,5.28
2022-10-19T18:56:55.498Z,5.82
2022-10-19T18:59:25.188Z,4.43
2022-10-19T19:01:53.514Z,3.17
2022-10-19T19:04:21.640Z,7.03
2022-10-19T19:06:49.901Z,8.98
2022-10-19T19:09:18.966Z,4.88
2022-10-19T19:11:47.149Z,6.88
2022-10-19T19:14:17.854Z,5.93
2022-10-19T19:16:47.587Z,3.65
2022-10-19T19:19:18.289Z,5.32
2022-10-19T19:21:47.512Z,3.88
2022-10-19T19:24:19.552Z,5.28
2022-10-19T19:26:51.171Z,3.55
2022-10-19T19:29:23.657Z,5.53
2022-10-19T19:31:54.903Z,13.70
2022-10-19T19:34:23.530Z,3.30
2022-10-19T19:36:51.829Z,5.80
2022-10-19T19:39:22.786Z,3.38
2022-10-19T19:41:51.231Z,3.88
2022-10-19T19:44:20.188Z,7.35
2022-10-19T19:46:49.903Z,7.22
2022-10-19T19:49:20.899Z,6.63
2022-10-19T19:56:33.314Z,4.57
2022-10-19T19:59:03.598Z,8.32
2022-10-19T20:01:32.528Z,4.72
2022-10-19T20:06:34.350Z,4.57
2022-10-19T20:09:05.111Z,9.25
2022-10-19T20:11:36.014Z,9.40
2022-10-19T20:14:05.972Z,8.65
2022-10-19T20:16:34.426Z,5.60
2022-10-19T20:19:08.324Z,6.85
2022-10-19T20:24:10.860Z,5.90
2022-10-19T20:26:40.401Z,5.20
2022-10-19T20:29:08.653Z,8.52
2022-10-19T20:31:40.319Z,7.75
2022-10-19T20:34:12.135Z,5.80
2022-10-19T20:36:42.183Z,12.35
2022-10-19T20:39:11.392Z,6.78
2022-10-19T20:41:40.906Z,4.80
2022-10-19T20:44:09.174Z,8.85
2022-10-19T20:46:37.844Z,7.72
2022-10-19T20:49:07.352Z,7.72
2022-10-19T20:51:38.075Z,6.25
2022-10-19T20:54:13.487Z,7.20
2022-10-19T20:56:42.793Z,8.60
2022-10-19T20:59:14.702Z,8.68
2022-10-19T21:01:44.753Z,11.60
2022-10-19T21:04:14.782Z,9.57
2022-10-19T21:06:48.025Z,7.43
2022-10-19T21:09:20.958Z,8.32
2022-10-19T21:11:51.291Z,7.13
2022-10-19T21:14:25.462Z,8.48
2022-10-19T21:16:57.682Z,6.68
2022-10-19T21:19:28.153Z,9.23
2022-10-19T21:21:58.692Z,9.27
2022-10-19T21:24:32.181Z,7.63
2022-10-19T21:27:02.302Z,8.55
2022-10-19T21:29:30.453Z,8.43
2022-10-19T21:31:58.623Z,8.32
2022-10-19T21:34:28.782Z,7.38
2022-10-19T21:36:57.753Z,8.05
2022-10-19T21:39:25.861Z,10.02
2022-10-19T21:41:55.702Z,6.82
2022-10-19T21:44:23.887Z,6.97
2022-10-19T21:46:52.261Z,8.98
2022-10-19T21:49:20.481Z,8.88
2022-10-19T21:51:51.019Z,7.95
2022-10-19T21:54:21.498Z,9.90
2022-10-19T21:56:50.066Z,12.45
2022-10-19T21:59:19.578Z,7.90
2022-10-19T22:01:47.803Z,7.00
2022-10-19T22:04:17.833Z,7.70
2022-10-19T22:06:46.391Z,7.38
2022-10-19T22:09:17.352Z,6.63
2022-10-19T22:11:46.104Z,9.73
2022-10-19T22:14:15.462Z,9.13
2022-10-19T22:16:45.350Z,10.85
2022-10-19T22:19:13.954Z,8.50
2022-10-19T22:21:42.152Z,8.68
2022-10-19T22:24:12.610Z,10.98
2022-10-19T22:26:43.643Z,10.27
2022-10-19T22:29:12.592Z,10.43
2022-10-19T22:31:41.262Z,9.13
2022-10-19T22:34:12.595Z,14.85
2022-10-19T22:36:40.791Z,9.27
2022-10-19T22:39:08.883Z,10.57
2022-10-19T22:42:24.232Z,11.30
2022-10-19T22:44:52.372Z,8.05
2022-10-19T22:47:20.461Z,11.93
2022-10-19T22:49:49.927Z,9.82
2022-10-19T22:52:18.120Z,8.23
2022-10-19T22:54:46.211Z,13.35
2022-10-19T22:57:14.391Z,9.73
2022-10-19T22:59:43.274Z,9.02
2022-10-19T23:02:11.381Z,11.63
2022-10-19T23:04:39.585Z,15.65
2022-10-19T23:07:09.017Z,8.50
2022-10-19T23:09:37.140Z,8.35
2022-10-19T23:12:05.661Z,9.63
2022-10-19T23:14:33.812Z,12.77
2022-10-19T23:17:01.851Z,12.15
2022-10-19T23:19:30.089Z,9.55
2022-10-19T23:21:58.208Z,12.13
2022-10-19T23:24:27.681Z,13.00
2022-10-19T23:26:55.850Z,11.50
2022-10-19T23:29:24.209Z,12.38
2022-10-19T23:31:52.281Z,11.20
2022-10-19T23:34:20.524Z,8.85
2022-10-19T23:36:48.642Z,10.57
2022-10-19T23:39:16.940Z,7.90
2022-10-19T23:41:46.326Z,15.82
2022-10-19T23:44:14.611Z,15.45
2022-10-19T23:46:42.730Z,12.82
2022-10-19T23:49:10.900Z,14.05
2022-10-19T23:51:39.009Z,10.88
2022-10-19T23:54:07.131Z,12.10
2022-10-19T23:56:35.330Z,12.48
2022-10-19T23:59:07.291Z,14.32
